• Join FlightAware (Why Join?)
  • Login
  • US Flag 
05:00AM EDT


 

Airport Tracker/Info


-or-


 

Live Flight TrackerFlight Track Log ✈ EGF2912 ✈ 25-Apr-2012 ✈ KDFW - KGRK

Flight Track Log - Related Links

Times and Time Zones

All times are in EDT time to prevent confusion due to time zone crossing. See the EGF2912 flight status page for this flight to view local times or setup timezone preferences in your user account.

Time Position Orientation Groundspeed Altitude Reporting Facility
EDT Latitude Longitude Course Direction KTS MPH feet Rate Location/Type
05:23PM 32.8730 -97.0333 266° West  Level FlightAware Approximate
05:24PM 32.8719 -97.0517 180° South 160 184 2,000  Level FAA TRACON SMA TRACON (SMA)
05:24PM 32.8347 -97.0517 181° South 193 222 3,800 2,040 Climbing FAA TRACON SMA TRACON (SMA)
05:25PM 32.7919 -97.0525 181° South 227 261 4,700 1,440 Climbing FAA TRACON SMA TRACON (SMA)
05:25PM 32.7475 -97.0533 183° South 262 302 5,700 1,920 Climbing FAA TRACON SMA TRACON (SMA)
05:26PM 32.6964 -97.0564 194° South 268 308 7,300 2,220 Climbing FAA TRACON SMA TRACON (SMA)
05:27PM 32.6453 -97.0711 196° South 274 315 8,700 1,920 Climbing FAA TRACON SMA TRACON (SMA)
05:27PM 32.5989 -97.0869 195° South 282 325 9,900 1,500 Climbing FAA TRACON SMA TRACON (SMA)
05:28PM 32.5419 -97.1050 195° South 310 357 10,700 1,260 Climbing FAA TRACON SMA TRACON (SMA)
05:29PM 32.4800 -97.1242 195° South 334 384 11,600 1,380 Climbing FAA TRACON SMA TRACON (SMA)
05:29PM 32.4236 -97.1417 195° South 341 392 12,600 1,680 Climbing FAA TRACON SMA TRACON (SMA)
05:30PM 32.3594 -97.1617 202° Southwest 343 395 13,900 1,800 Climbing FAA TRACON SMA TRACON (SMA)
05:31PM 32.3058 -97.1878 220° Southwest 339 390 15,000 1,740 Climbing FAA TRACON SMA TRACON (SMA)
05:31PM 32.2556 -97.2375 221° Southwest 338 389 16,200 1,680 Climbing FAA TRACON SMA TRACON (SMA)
05:32PM 32.2056 -97.2897 219° Southwest 346 398 17,300 1,800 Climbing FAA TRACON SMA TRACON (SMA)
05:33PM 32.1594 -97.3342 220° Southwest 347 399 18,600 1,800 Climbing FAA TRACON SMA TRACON (SMA)
05:33PM 32.1069 -97.3869 221° Southwest 355 409 19,700 1,020 Climbing FAA TRACON SMA TRACON (SMA)
05:34PM 32.0519 -97.4425 219° Southwest 376 433 20,000 180 Climbing FAA TRACON SMA TRACON (SMA)
05:35PM 31.9981 -97.4939 221° Southwest 404 465 20,000  Level FAA TRACON SMA TRACON (SMA)
05:37PM 31.8456 -97.6481 220° Southwest 430 495 20,000 -540 Level Fort Worth Center
05:38PM 31.7556 -97.7358 220° Southwest 421 484 18,600 -2,220 Descending Fort Worth Center
05:39PM 31.6719 -97.8186 219° Southwest 410 472 15,600 -2,520 Descending Fort Worth Center
05:40PM 31.5922 -97.8939 218° Southwest 391 450 13,600 -1,320 Descending Fort Worth Center
05:41PM 31.5086 -97.9714 197° South 386 444 13,000 -1,080 Descending Fort Worth Center
05:42PM 31.4206 -98.0025 153° Southeast 341 392 11,500 -1,560 Descending Fort Worth Center
05:43PM 31.3353 -97.9508 153° Southeast 308 354 9,900 -1,800 Descending Fort Worth Center
05:44PM 31.2728 -97.9142 163° South 290 334 8,000 -1,980 Descending Fort Worth Center
05:45PM 31.2103 -97.8917 163° South 263 303 6,000 -2,040 Descending Fort Worth Center